Time;durP1;ratioP1;P1;durP2;ratioP2;P2;SDS_P1;SDS_P2;PMS_P1;PMS_P2;Temp;Humidity;BMP_temperature;BMP_pressure;BME280_temperature;BME280_humidity;BME280_pressure;Samples;Min_cycle;Max_cycle;Signal;HPM_P1;HPM_P2
2022/07/29 00:02:02;;;;;;;8.93;4.50;;;;;;;22.93;66.43;99974.94;6284629;28;20148;-69
2022/07/29 00:05:05;;;;;;;9.93;5.10;;;;;;;22.91;67.66;99971.63;6298144;28;20052;-69
2022/07/29 00:08:08;;;;;;;;;;;;;;;22.72;68.25;99972.91;6282569;28;20048;-69
2022/07/29 00:11:09;;;;;;;6.00;3.83;;;;;;;22.86;67.23;99980.16;6299975;28;19924;-69
2022/07/29 00:14:11;;;;;;;11.93;4.68;;;;;;;22.72;68.23;99956.94;6282176;28;20048;-69
2022/07/29 00:17:11;;;;;;;5.87;4.40;;;;;;;22.59;69.98;99951.34;6298522;28;20048;-70
2022/07/29 00:20:13;;;;;;;7.75;5.07;;;;;;;22.75;68.05;99972.53;6298532;28;20044;-68
2022/07/29 00:23:14;;;;;;;7.75;4.93;;;;;;;22.74;67.96;99962.94;6298305;28;20044;-68
2022/07/29 00:26:15;;;;;;;6.57;4.80;;;;;;;22.67;69.10;99948.66;6265016;28;20114;-69
2022/07/29 00:29:16;;;;;;;7.87;4.80;;;;;;;22.59;68.83;99943.38;6281562;28;20052;-69
2022/07/29 00:32:17;;;;;;;12.23;5.47;;;;;;;22.71;68.53;99947.31;6264986;28;20406;-69
2022/07/29 00:38:37;;;;;;;7.45;4.60;;;;;;;22.74;68.07;99962.94;6297917;28;20052;-69
2022/07/29 00:41:38;;;;;;;6.63;4.90;;;;;;;22.71;68.73;99955.28;6280770;28;20415;-69
2022/07/29 00:44:40;;;;;;;8.10;4.37;;;;;;;22.72;68.52;99963.09;6297151;28;20387;-69
2022/07/29 00:47:41;;;;;;;5.72;4.53;;;;;;;22.73;68.32;99959.44;6330982;28;20052;-70
2022/07/29 00:50:43;;;;;;;;;;;;;;;22.66;68.65;99958.47;6281636;28;20414;-70
2022/07/29 00:53:44;;;;;;;8.27;4.32;;;;;;;22.64;69.03;99951.69;6298738;28;19924;-70
2022/07/29 00:56:45;;;;;;;7.82;4.80;;;;;;;22.58;69.18;99947.88;6264250;28;20057;-72
2022/07/29 00:59:46;;;;;;;7.47;4.87;;;;;;;22.54;69.24;99944.72;6298767;28;20041;-69
2022/07/29 01:02:48;;;;;;;6.87;5.33;;;;;;;22.57;69.80;99950.69;6264375;28;20440;-68
2022/07/29 01:05:49;;;;;;;6.32;4.63;;;;;;;22.54;70.58;99936.75;6297429;28;20609;-68
2022/07/29 01:08:51;;;;;;;8.83;5.20;;;;;;;22.50;70.74;99934.63;6298531;28;20120;-68
2022/07/29 01:11:55;;;;;;;6.70;4.82;;;;;;;22.37;70.83;99934.38;6298256;28;20115;-72
2022/07/29 01:14:56;;;;;;;8.18;4.88;;;;;;;22.36;70.96;99932.69;6298324;28;20048;-71
2022/07/29 01:18:05;;;;;;;6.57;4.90;;;;;;;22.34;70.93;99927.53;6298145;28;20048;-72
2022/07/29 01:21:15;;;;;;;5.85;4.70;;;;;;;22.36;71.03;99932.69;6298125;28;20048;-72
2022/07/29 01:24:45;;;;;;;8.30;4.93;;;;;;;22.28;72.07;99926.44;6297912;28;20075;-69
2022/07/29 01:27:55;;;;;;;6.20;5.00;;;;;;;22.18;73.04;99927.63;6297294;28;20061;-72
2022/07/29 01:30:56;;;;;;;5.30;4.72;;;;;;;22.10;72.64;99923.97;6296513;28;20103;-69
2022/07/29 01:34:02;;;;;;;6.55;5.00;;;;;;;22.12;72.62;99921.16;6297424;28;20186;-69
2022/07/29 01:37:12;;;;;;;14.20;4.88;;;;;;;22.10;73.10;99923.16;6291317;28;20434;-68
2022/07/29 01:40:23;;;;;;;7.07;5.30;;;;;;;22.09;72.98;99924.97;6272859;28;20105;-72
2022/07/29 01:43:35;;;;;;;7.95;4.88;;;;;;;22.08;73.06;99928.63;6271303;28;20495;-69
2022/07/29 01:46:38;;;;;;;;;;;;;;;22.03;73.34;99924.81;6273229;28;20132;-72
2022/07/29 01:49:47;;;;;;;8.48;5.10;;;;;;;21.92;74.43;99926.00;6272891;28;19920;-72
2022/07/29 01:52:58;;;;;;;8.48;5.00;;;;;;;21.87;74.32;99923.88;6272342;28;20080;-72
2022/07/29 01:56:01;;;;;;;5.25;4.75;;;;;;;21.93;74.29;99914.41;6272761;28;20045;-70
2022/07/29 01:59:06;;;;;;;7.32;5.10;;;;;;;21.94;74.54;99924.84;6272561;28;20051;-68
2022/07/29 02:02:10;;;;;;;9.32;4.57;;;;;;;21.88;74.64;99922.88;6272656;28;20037;-69
2022/07/29 02:05:13;;;;;;;6.63;4.88;;;;;;;21.86;74.42;99913.41;6272454;28;20041;-69
2022/07/29 02:08:16;;;;;;;15.05;5.13;;;;;;;21.79;74.95;99912.47;6304656;28;20081;-69
2022/07/29 02:11:17;;;;;;;7.38;5.38;;;;;;;21.75;75.34;99911.13;6272522;28;20045;-72
2022/07/29 02:14:21;;;;;;;8.82;5.15;;;;;;;21.70;75.73;99909.81;6270997;28;20391;-69
2022/07/29 02:17:27;;;;;;;10.13;5.60;;;;;;;21.67;75.83;99906.66;6272066;28;20045;-69
2022/07/29 02:20:29;;;;;;;7.55;5.18;;;;;;;21.63;76.38;99911.47;6271816;28;20041;-72
2022/07/29 02:23:33;;;;;;;5.60;5.10;;;;;;;21.53;76.88;99909.00;6271674;28;20091;-71
2022/07/29 02:26:35;;;;;;;7.93;5.15;;;;;;;21.53;77.66;99911.66;6271943;28;20045;-72
2022/07/29 02:29:38;;;;;;;7.03;4.60;;;;;;;21.51;77.25;99910.16;6272009;28;20051;-69
2022/07/29 02:32:41;;;;;;;10.93;5.05;;;;;;;21.44;78.13;99917.16;6271938;28;20106;-72
2022/07/29 02:35:45;;;;;;;7.22;5.18;;;;;;;21.42;78.54;99917.31;6271768;28;20491;-69
2022/07/29 02:38:51;;;;;;;8.95;5.25;;;;;;;21.42;78.37;99924.44;6271676;28;20049;-69
2022/07/29 02:41:59;;;;;;;7.03;5.18;;;;;;;21.46;78.10;99923.13;6270338;28;20049;-69
2022/07/29 02:44:59;;;;;;;9.00;5.40;;;;;;;21.38;78.81;99928.41;6273475;28;20069;-68
2022/07/29 02:48:10;;;;;;;8.07;5.00;;;;;;;21.36;79.19;99911.81;6259612;28;20056;-70
2022/07/29 02:51:19;;;;;;;8.10;5.32;;;;;;;21.24;80.23;99917.44;6275753;28;20052;-72
2022/07/29 02:54:37;;;;;;;6.80;5.18;;;;;;;21.21;80.51;99917.78;6276772;28;20096;-69
2022/07/29 02:57:54;;;;;;;6.07;4.65;;;;;;;21.14;81.25;99922.09;6276742;28;20069;-69
2022/07/29 03:01:11;;;;;;;7.97;4.68;;;;;;;21.12;81.50;99922.25;6308482;28;20059;-69
2022/07/29 03:04:15;;;;;;;7.10;5.10;;;;;;;21.18;81.32;99922.59;6276317;28;20574;-69
2022/07/29 03:07:18;;;;;;;7.13;4.80;;;;;;;21.20;81.12;99926.72;6308762;28;20048;-68
2022/07/29 03:10:20;;;;;;;8.43;4.95;;;;;;;21.19;81.42;99930.41;6276315;28;20047;-71
2022/07/29 03:13:23;;;;;;;9.10;5.13;;;;;;;21.19;81.28;99935.69;6276472;28;20048;-71
2022/07/29 03:16:25;;;;;;;5.63;4.80;;;;;;;21.23;81.43;99930.88;6276300;28;20053;-72
2022/07/29 03:19:26;;;;;;;;;;;;;;;21.25;83.86;99934.19;6276742;28;20064;-69
2022/07/29 03:22:27;;;;;;;12.00;5.28;;;;;;;21.13;82.36;99926.56;6276110;28;20321;-69
2022/07/29 03:25:28;;;;;;;;;;;;;;;21.09;82.64;99940.34;6276713;28;20171;-69
2022/07/29 03:28:30;;;;;;;9.07;5.05;;;;;;;21.02;83.23;99923.41;6276081;28;19928;-72
2022/07/29 03:31:31;;;;;;;7.17;4.80;;;;;;;21.05;83.31;99934.53;6274930;28;20191;-72
2022/07/29 03:34:32;;;;;;;9.68;5.20;;;;;;;20.95;84.18;99927.72;6258273;28;20103;-69
2022/07/29 03:37:36;;;;;;;7.23;5.43;;;;;;;20.99;84.07;99923.75;6258197;28;20037;-69
2022/07/29 03:40:51;;;;;;;9.35;5.20;;;;;;;21.00;84.06;99926.25;6274763;28;20132;-69
2022/07/29 03:43:54;;;;;;;6.47;4.82;;;;;;;20.97;84.55;99929.22;6275573;28;20041;-72
2022/07/29 03:46:59;;;;;;;11.25;5.13;;;;;;;21.04;84.19;99932.84;6275137;28;20132;-69
2022/07/29 03:50:06;;;;;;;9.18;5.25;;;;;;;21.07;83.91;99924.59;6275180;28;20036;-70
2022/07/29 03:53:07;;;;;;;8.10;5.05;;;;;;;21.04;84.30;99926.72;6275511;28;20068;-70
2022/07/29 03:56:13;;;;;;;8.60;5.13;;;;;;;21.06;84.13;99919.44;6273919;28;20103;-72
2022/07/29 03:59:17;;;;;;;9.70;5.40;;;;;;;21.10;83.79;99934.03;6275458;28;20049;-72
2022/07/29 04:02:19;;;;;;;8.65;4.60;;;;;;;21.21;83.84;99939.03;6274095;28;20120;-69
2022/07/29 04:05:21;;;;;;;9.43;5.20;;;;;;;21.18;84.09;99927.91;6275261;28;20072;-70
2022/07/29 04:08:22;;;;;;;;;;;;;;;21.23;83.94;99928.22;6274402;28;20041;-70
2022/07/29 04:11:23;;;;;;;11.98;5.40;;;;;;;21.26;83.54;99920.75;6273953;28;19921;-72
2022/07/29 04:14:24;;;;;;;11.75;5.63;;;;;;;21.29;83.81;99920.44;6257425;28;20059;-72
2022/07/29 04:17:25;;;;;;;10.48;5.90;;;;;;;21.23;84.60;99920.25;6273663;28;20487;-70
2022/07/29 04:20:27;;;;;;;9.70;5.30;;;;;;;21.29;83.08;99925.75;6257260;28;20045;-72
2022/07/29 04:23:32;;;;;;;8.47;5.43;;;;;;;21.39;83.01;99920.25;6273538;28;20454;-70
2022/07/29 04:26:36;;;;;;;8.68;5.35;;;;;;;21.41;83.21;99914.78;6274777;28;20048;-72
2022/07/29 04:29:37;;;;;;;10.13;5.22;;;;;;;21.56;82.07;99915.81;6274588;28;20127;-71
2022/07/29 04:32:37;;;;;;;8.07;5.40;;;;;;;21.69;81.79;99925.91;6257078;28;20041;-71
2022/07/29 04:35:39;;;;;;;9.10;5.50;;;;;;;21.65;82.03;99925.41;6273482;28;20044;-72
2022/07/29 04:38:40;;;;;;;9.82;5.65;;;;;;;21.63;82.06;99921.28;6240464;28;20045;-71
2022/07/29 04:41:41;;;;;;;10.53;5.67;;;;;;;21.63;82.51;99922.09;6274223;28;20048;-70
2022/07/29 04:44:42;;;;;;;6.70;5.18;;;;;;;21.65;82.77;99928.06;6256471;28;20041;-73
2022/07/29 04:47:43;;;;;;;9.23;5.80;;;;;;;21.60;82.77;99930.41;6273038;28;20041;-73
2022/07/29 04:50:44;;;;;;;10.00;5.38;;;;;;;21.69;82.63;99931.22;6284191;28;20045;-71
2022/07/29 04:53:48;;;;;;;7.17;5.00;;;;;;;21.75;82.52;99938.50;6288649;28;20124;-73
2022/07/29 04:56:49;;;;;;;8.18;5.70;;;;;;;21.88;82.01;99943.28;6297527;28;20364;-74
2022/07/29 04:59:50;;;;;;;17.13;5.80;;;;;;;22.05;81.83;99950.25;6258027;28;20084;-70
2022/07/29 05:02:50;;;;;;;10.03;5.90;;;;;;;22.18;80.40;99951.53;6281303;28;20135;-70
2022/07/29 05:05:51;;;;;;;10.73;5.43;;;;;;;22.24;80.97;99956.19;6290314;28;20123;-70
2022/07/29 05:08:53;;;;;;;9.85;5.78;;;;;;;22.16;80.51;99950.88;6285069;28;20162;-71
2022/07/29 05:11:57;;;;;;;10.75;5.75;;;;;;;22.12;81.04;99958.34;6291073;28;20537;-70
2022/07/29 05:14:58;;;;;;;8.57;6.13;;;;;;;22.18;81.95;99960.31;6297156;28;20052;-70
2022/07/29 05:17:59;;;;;;;10.10;5.55;;;;;;;22.20;81.28;99962.81;6280597;28;20063;-70
2022/07/29 05:21:00;;;;;;;12.40;5.72;;;;;;;22.32;82.01;99958.78;6298312;28;20048;-70
2022/07/29 05:24:04;;;;;;;15.93;6.03;;;;;;;22.48;80.96;99960.56;6280457;28;20044;-70
2022/07/29 05:27:05;;;;;;;14.10;5.75;;;;;;;22.51;79.93;99958.38;6280778;28;20098;-70
2022/07/29 05:30:07;;;;;;;11.30;6.10;;;;;;;22.55;80.03;99958.88;6263790;28;20067;-70
2022/07/29 05:33:08;;;;;;;15.32;5.53;;;;;;;22.77;80.67;99957.25;6265949;28;20043;-73
2022/07/29 05:36:11;;;;;;;10.57;5.53;;;;;;;22.90;78.73;99954.84;6306268;28;20458;-73
2022/07/29 05:39:14;;;;;;;12.45;5.90;;;;;;;23.00;82.38;99951.97;6280795;28;20041;-73
2022/07/29 05:42:15;;;;;;;17.00;5.82;;;;;;;23.08;78.42;99951.09;6272293;28;20045;-73
2022/07/29 05:45:16;;;;;;;16.00;5.70;;;;;;;23.09;82.00;99950.09;6272263;28;20502;-73
2022/07/29 05:48:17;;;;;;;9.52;5.10;;;;;;;23.16;83.11;99951.03;6252122;28;20040;-67
2022/07/29 05:51:20;;;;;;;9.30;5.43;;;;;;;23.11;82.16;99951.56;6276884;28;20050;-67
2022/07/29 05:54:21;;;;;;;8.50;5.47;;;;;;;23.30;83.56;99949.44;6279392;28;20380;-67
2022/07/29 05:57:24;;;;;;;9.25;5.15;;;;;;;23.45;80.79;99947.66;6274517;28;20060;-72
2022/07/29 06:00:25;;;;;;;8.63;5.20;;;;;;;23.66;81.52;99943.44;6295067;28;20123;-68
2022/07/29 06:03:26;;;;;;;11.85;5.60;;;;;;;23.71;83.90;99946.41;6295720;28;20048;-73
2022/07/29 06:06:27;;;;;;;7.03;4.77;;;;;;;23.79;80.37;99949.03;6279403;28;20468;-72
2022/07/29 06:09:28;;;;;;;7.20;5.23;;;;;;;23.79;80.28;99959.69;6278907;28;20044;-67
2022/07/29 06:12:29;;;;;;;7.68;4.95;;;;;;;24.01;80.61;99963.28;6297176;28;20415;-68
2022/07/29 06:15:30;;;;;;;9.98;4.80;;;;;;;24.11;78.04;99960.31;6262410;28;20403;-68
2022/07/29 06:18:31;;;;;;;9.87;5.10;;;;;;;24.38;77.50;99964.19;6296375;28;20051;-72
2022/07/29 06:21:31;;;;;;;7.83;4.60;;;;;;;24.64;73.77;99963.69;6295694;28;20044;-73
2022/07/29 06:24:32;;;;;;;11.43;4.90;;;;;;;24.61;75.50;99971.28;6296267;28;20056;-73
2022/07/29 06:27:33;;;;;;;7.22;4.78;;;;;;;24.74;77.55;99966.91;6295522;28;20040;-67
2022/07/29 06:30:37;;;;;;;6.45;4.63;;;;;;;24.91;72.82;99964.00;6272888;28;20041;-67
2022/07/29 06:33:38;;;;;;;9.80;4.60;;;;;;;25.11;74.32;99962.34;6276551;28;20509;-68
2022/07/29 06:36:39;;;;;;;5.55;4.55;;;;;;;25.42;72.79;99960.41;6283137;28;20086;-68
2022/07/29 06:39:40;;;;;;;6.50;4.57;;;;;;;25.39;72.44;99958.09;6281332;28;20136;-67
2022/07/29 06:42:44;;;;;;;9.17;4.87;;;;;;;25.43;73.42;99960.22;6280454;28;20036;-67
2022/07/29 06:45:47;;;;;;;11.38;5.32;;;;;;;25.46;69.32;99956.34;6285055;28;20454;-67
2022/07/29 06:48:50;;;;;;;13.10;5.00;;;;;;;25.57;69.36;99963.81;6276460;28;20399;-69
2022/07/29 06:51:51;;;;;;;7.82;4.55;;;;;;;25.96;69.36;99957.13;6284385;28;20076;-68
2022/07/29 06:54:52;;;;;;;6.72;4.50;;;;;;;26.51;71.02;99957.19;6284143;28;20060;-67
2022/07/29 06:57:52;;;;;;;8.73;4.35;;;;;;;26.79;63.46;99965.16;6263739;28;20064;-68
2022/07/29 07:00:53;;;;;;;12.45;4.90;;;;;;;26.72;62.64;99964.28;6296268;28;20044;-68
2022/07/29 07:03:54;;;;;;;14.13;4.90;;;;;;;27.16;62.89;99973.66;6296103;28;20043;-68
2022/07/29 07:06:55;;;;;;;10.77;5.03;;;;;;;27.42;63.37;99967.53;6286232;28;20479;-69
2022/07/29 07:09:56;;;;;;;9.82;4.53;;;;;;;27.52;59.09;99972.47;6262222;28;20047;-69
2022/07/29 07:13:02;;;;;;;18.77;4.68;;;;;;;27.63;62.07;99966.47;6270135;28;20614;-69
2022/07/29 07:16:03;;;;;;;7.20;4.43;;;;;;;27.34;58.30;99962.38;6269616;28;20053;-69
2022/07/29 07:23:14;;;;;;;10.35;4.80;;;;;;;27.28;60.43;99963.19;6233112;28;20092;-70
2022/07/29 07:26:15;;;;;;;13.10;5.00;;;;;;;27.25;62.25;99960.94;6213231;28;20038;-73
2022/07/29 07:29:17;;;;;;;;;;;;;;;27.34;60.84;99967.72;6247322;28;20068;-71
2022/07/29 07:32:17;;;;;;;6.77;4.47;;;;;;;27.37;57.45;99963.84;6257532;28;19928;-72
2022/07/29 07:35:19;;;;;;;7.93;4.65;;;;;;;27.61;59.04;99971.22;6239544;28;20403;-71
2022/07/29 07:38:20;;;;;;;12.07;4.30;;;;;;;27.67;57.35;99972.25;6232532;28;20520;-74
2022/07/29 07:41:21;;;;;;;10.50;4.97;;;;;;;27.68;58.29;99974.72;6233942;28;20041;-73
2022/07/29 07:44:22;;;;;;;7.70;4.53;;;;;;;27.84;56.18;99975.31;6250859;28;20041;-70
2022/07/29 07:47:24;;;;;;;;;;;;;;;27.86;56.49;99973.25;6260657;28;20042;-69
2022/07/29 07:50:25;;;;;;;10.30;4.75;;;;;;;27.98;55.97;99984.19;6233288;28;20329;-69
2022/07/29 07:53:26;;;;;;;17.80;5.30;;;;;;;28.04;54.38;99978.00;6196325;28;20045;-70
2022/07/29 07:56:28;;;;;;;18.58;5.00;;;;;;;28.05;54.02;99974.31;6241726;28;20041;-70
2022/07/29 07:59:28;;;;;;;11.05;4.97;;;;;;;27.57;55.51;99983.38;6218337;28;20045;-70
2022/07/29 08:02:32;;;;;;;13.27;5.18;;;;;;;27.89;60.77;99988.97;6251923;28;20068;-70
2022/07/29 08:05:33;;;;;;;8.15;4.55;;;;;;;28.14;54.95;99989.94;6258755;28;20052;-70
2022/07/29 08:08:36;;;;;;;;;;;;;;;28.55;53.34;99985.31;6268981;28;20033;-74
2022/07/29 08:11:37;;;;;;;8.38;5.03;;;;;;;29.16;49.90;99988.50;6258443;28;19925;-70
2022/07/29 08:14:38;;;;;;;;;;;;;;;29.84;48.25;99993.16;6235563;28;20049;-71
2022/07/29 08:17:38;;;;;;;9.13;4.90;;;;;;;29.76;52.58;99990.75;6273822;28;19931;-70
2022/07/29 08:20:40;;;;;;;14.68;4.97;;;;;;;29.67;48.87;99991.00;6244509;28;20048;-70
2022/07/29 08:24:42;;;;;;;19.25;5.10;;;;;;;29.67;50.53;99988.31;6256315;28;20049;-70
2022/07/29 08:27:13;;;;;;;11.48;4.55;;;;;;;30.18;47.41;99994.44;6273860;28;20498;-70
2022/07/29 08:30:16;;;;;;;9.65;4.90;;;;;;;30.30;47.02;99986.50;6274274;28;20541;-70
2022/07/29 08:33:17;;;;;;;11.32;4.90;;;;;;;30.96;46.24;99992.09;6274216;28;20048;-70
2022/07/29 08:36:20;;;;;;;9.48;4.60;;;;;;;30.87;46.14;99987.03;6273832;28;20116;-70
2022/07/29 08:39:22;;;;;;;11.07;4.55;;;;;;;30.41;47.27;99996.50;6256387;28;20548;-70
2022/07/29 08:42:25;;;;;;;12.13;5.35;;;;;;;30.33;47.34;99991.41;6272496;28;20498;-74
2022/07/29 08:45:28;;;;;;;6.80;4.70;;;;;;;30.30;47.61;99990.00;6240049;28;20048;-70
2022/07/29 08:48:30;;;;;;;11.98;4.60;;;;;;;30.00;50.19;99989.06;6288341;28;20098;-70
2022/07/29 08:51:36;;;;;;;10.27;5.05;;;;;;;29.80;47.07;99990.09;6288094;28;20467;-70
2022/07/29 08:54:39;;;;;;;9.73;4.70;;;;;;;30.48;46.18;99989.16;6264653;28;20131;-70
2022/07/29 08:57:40;;;;;;;6.55;4.13;;;;;;;30.28;50.16;99992.06;6272985;28;20060;-70
2022/07/29 09:00:46;;;;;;;10.55;4.63;;;;;;;30.01;52.59;99988.84;6274699;28;20522;-74
2022/07/29 09:03:48;;;;;;;13.23;4.50;;;;;;;29.71;49.51;99991.41;6295900;28;20040;-74
2022/07/29 09:06:51;;;;;;;9.65;4.60;;;;;;;29.68;48.67;99987.28;6272474;28;20468;-74
2022/07/29 09:09:52;;;;;;;8.30;4.32;;;;;;;29.54;52.77;99981.19;6253520;28;20064;-74
2022/07/29 09:12:57;;;;;;;6.28;4.43;;;;;;;29.44;51.88;99985.41;6264060;28;20037;-70
2022/07/29 09:15:58;;;;;;;8.80;4.63;;;;;;;29.14;52.10;99986.06;6255123;28;20103;-74
2022/07/29 09:18:59;;;;;;;9.80;4.70;;;;;;;29.19;51.85;99983.53;6280971;28;20055;-74
2022/07/29 09:22:01;;;;;;;9.55;4.97;;;;;;;29.10;51.59;99990.19;6247032;28;20040;-73
2022/07/29 09:25:02;;;;;;;9.55;5.25;;;;;;;29.08;54.05;99990.38;6297502;28;20040;-70
2022/07/29 09:28:11;;;;;;;8.40;5.00;;;;;;;28.91;52.82;99986.56;6262820;28;20056;-73
2022/07/29 09:31:12;;;;;;;10.82;4.90;;;;;;;28.80;54.53;99995.31;6280057;28;20076;-70
2022/07/29 09:34:31;;;;;;;13.57;5.28;;;;;;;28.67;51.73;99988.97;6284503;28;20052;-70
2022/07/29 09:37:32;;;;;;;11.10;4.60;;;;;;;28.69;52.96;99988.75;6262106;28;20056;-71
2022/07/29 09:40:33;;;;;;;11.95;4.60;;;;;;;28.58;51.56;99990.25;6297089;28;20044;-71
2022/07/29 09:43:34;;;;;;;11.43;5.38;;;;;;;28.39;53.80;99994.59;6278284;28;20051;-70
2022/07/29 09:46:35;;;;;;;16.88;5.40;;;;;;;28.30;57.62;99993.22;6279304;28;20041;-70
2022/07/29 09:49:51;;;;;;;12.02;5.53;;;;;;;28.03;56.33;100005.88;6241978;28;20437;-74
2022/07/29 09:52:53;;;;;;;13.70;6.88;;;;;;;27.68;60.50;100006.06;6260253;28;20114;-70
2022/07/29 09:55:53;;;;;;;14.15;6.53;;;;;;;27.21;66.06;100006.00;6244992;28;20482;-70
2022/07/29 09:59:08;;;;;;;14.93;6.00;;;;;;;27.04;66.74;100002.06;6295310;28;20548;-74
2022/07/29 10:02:13;;;;;;;17.15;6.43;;;;;;;26.92;68.50;99999.97;6261714;28;20064;-70
2022/07/29 10:05:29;;;;;;;12.85;5.93;;;;;;;26.67;71.53;100005.03;6271608;28;20478;-73
2022/07/29 10:08:31;;;;;;;20.38;7.10;;;;;;;26.21;81.46;100008.28;6294247;28;20048;-70
2022/07/29 10:11:31;;;;;;;12.40;6.95;;;;;;;26.18;83.38;99999.84;6296537;28;20044;-70
2022/07/29 10:14:33;;;;;;;13.05;7.57;;;;;;;26.02;87.33;100011.66;6250488;28;20064;-73
2022/07/29 10:17:34;;;;;;;;;;;;;;;26.10;89.35;99992.78;6297296;28;20461;-70
2022/07/29 10:20:35;;;;;;;16.27;7.50;;;;;;;26.25;90.14;99998.00;6287576;28;19920;-70
2022/07/29 10:23:39;;;;;;;9.13;5.93;;;;;;;26.27;85.92;99994.09;6278806;28;20052;-69
2022/07/29 10:26:41;;;;;;;7.57;5.80;;;;;;;26.45;85.90;99985.56;6296879;28;20043;-70
2022/07/29 10:29:42;;;;;;;9.20;5.78;;;;;;;26.65;85.70;99985.69;6278989;28;20056;-74
2022/07/29 10:33:19;;;;;;;11.13;6.15;;;;;;;26.81;81.44;99989.88;6278894;28;20048;-73
2022/07/29 10:36:38;;;;;;;12.98;6.68;;;;;;;26.93;76.56;99982.03;6235141;28;20053;-74
2022/07/29 10:43:45;;;;;;;7.50;4.50;;;;;;;27.09;74.96;99972.81;6203510;28;20061;-73
2022/07/29 10:46:47;;;;;;;9.75;5.00;;;;;;;27.49;76.32;99975.59;6282595;28;20550;-73
2022/07/29 10:50:02;;;;;;;6.03;4.53;;;;;;;27.79;75.88;99978.63;6295422;28;20374;-69
2022/07/29 10:53:03;;;;;;;8.38;6.10;;;;;;;28.00;69.24;99972.22;6287091;28;20079;-69
2022/07/29 10:56:22;;;;;;;;;;;;;;;28.40;69.71;99974.81;6262294;28;20068;-70
2022/07/29 10:59:24;;;;;;;9.65;4.63;;;;;;;29.01;66.57;99961.91;6261396;28;20319;-74
2022/07/29 11:02:37;;;;;;;6.18;4.05;;;;;;;28.87;57.55;99956.66;6296344;28;20131;-70
2022/07/29 11:05:55;;;;;;;5.75;4.00;;;;;;;29.57;54.50;99966.50;6297951;28;20044;-73
2022/07/29 11:09:19;;;;;;;8.65;4.07;;;;;;;30.29;52.23;99958.78;6283528;28;20424;-73
2022/07/29 11:12:50;;;;;;;6.05;3.85;;;;;;;30.54;51.59;99955.16;6258517;28;20037;-74
2022/07/29 11:15:57;;;;;;;8.38;4.20;;;;;;;31.06;50.41;99951.97;6246245;28;20049;-70
2022/07/29 11:19:12;;;;;;;7.63;4.10;;;;;;;31.88;52.98;99949.34;6295193;28;20052;-74
2022/07/29 11:22:35;;;;;;;6.18;3.70;;;;;;;31.13;43.82;99942.72;6282606;28;20048;-70
2022/07/29 11:25:36;;;;;;;6.53;3.40;;;;;;;30.69;48.39;99934.00;6274233;28;20084;-69
2022/07/29 11:28:39;;;;;;;;;;;;;;;30.82;43.10;99922.22;6279393;28;20040;-69
2022/07/29 11:31:50;;;;;;;6.63;3.58;;;;;;;30.39;46.11;99922.41;6299189;28;20369;-70
2022/07/29 11:35:23;;;;;;;6.50;3.50;;;;;;;30.61;47.30;99923.56;6300206;28;20126;-74
2022/07/29 11:38:26;;;;;;;5.95;3.58;;;;;;;31.41;43.33;99919.66;6299459;28;20045;-74
2022/07/29 11:41:29;;;;;;;5.45;3.13;;;;;;;32.05;44.73;99908.16;6300017;28;20043;-74
2022/07/29 11:45:10;;;;;;;6.43;3.30;;;;;;;31.87;38.63;99906.41;6282204;28;20052;-70
2022/07/29 11:48:17;;;;;;;;;;;;;;;32.01;38.31;99907.81;6182523;28;20701;-70
2022/07/29 11:51:18;;;;;;;5.65;2.97;;;;;;;32.28;35.24;99904.56;6199555;28;20423;-70
2022/07/29 11:54:49;;;;;;;4.75;3.25;;;;;;;32.43;37.04;99904.03;6264988;28;20382;-70
2022/07/29 11:58:00;;;;;;;3.70;3.10;;;;;;;32.23;37.20;99896.38;6279007;28;20135;-70
2022/07/29 12:01:01;;;;;;;6.03;3.55;;;;;;;32.69;44.50;99895.38;6293123;28;20063;-71
2022/07/29 12:04:03;;;;;;;;;;;;;;;32.81;37.36;99891.78;6299567;28;20049;-70
2022/07/29 12:07:04;;;;;;;5.85;3.30;;;;;;;32.77;35.08;99887.94;6281187;28;19974;-74
2022/07/29 12:10:05;;;;;;;;;;;;;;;32.89;39.64;99888.69;6259701;28;20055;-74
2022/07/29 12:13:07;;;;;;;6.03;3.10;;;;;;;33.17;39.89;99887.00;6281227;28;20386;-74
2022/07/29 12:16:13;;;;;;;5.72;3.15;;;;;;;33.22;33.82;99882.47;6280647;28;20109;-74
2022/07/29 12:19:14;;;;;;;;;;;;;;;33.41;33.95;99880.31;6298981;28;20052;-74
2022/07/29 12:22:25;;;;;;;4.70;3.33;;;;;;;33.20;37.27;99881.91;6280904;28;19920;-74
2022/07/29 12:25:26;;;;;;;6.78;3.25;;;;;;;33.23;37.58;99886.00;6280676;28;20051;-71
2022/07/29 12:28:27;;;;;;;;;;;;;;;33.15;35.17;99873.72;6281530;28;20411;-70
2022/07/29 12:31:28;;;;;;;;;;;;;;;33.03;36.48;99879.19;6286211;28;19921;-70
2022/07/29 12:34:29;;;;;;;8.00;3.30;;;;;;;33.05;39.40;99870.81;6274464;28;19951;-74
2022/07/29 12:37:32;;;;;;;6.68;3.30;;;;;;;33.05;35.07;99868.13;6283435;28;20418;-75
2022/07/29 12:40:35;;;;;;;4.53;3.10;;;;;;;33.00;36.69;99863.47;6286147;28;20512;-70
2022/07/29 12:43:36;;;;;;;5.90;3.25;;;;;;;33.25;37.79;99857.66;6280144;28;20097;-74
2022/07/29 12:46:37;;;;;;;3.72;3.25;;;;;;;33.35;35.42;99854.28;6298165;28;20456;-70
2022/07/29 12:49:38;;;;;;;6.10;3.30;;;;;;;33.51;37.94;99849.91;6280094;28;20057;-74
2022/07/29 12:52:39;;;;;;;4.43;2.80;;;;;;;33.68;38.34;99848.00;6255014;28;20056;-71
2022/07/29 12:55:43;;;;;;;4.20;3.10;;;;;;;33.60;35.67;99845.69;6255379;28;20052;-71
2022/07/29 12:58:44;;;;;;;6.15;3.20;;;;;;;33.59;37.37;99849.47;6254794;28;20079;-71
2022/07/29 13:01:49;;;;;;;5.60;3.20;;;;;;;33.49;35.69;99847.44;6255145;28;20491;-69
2022/07/29 13:04:58;;;;;;;6.05;2.90;;;;;;;33.44;33.93;99841.97;6255008;28;20136;-72
2022/07/29 13:08:13;;;;;;;4.85;2.80;;;;;;;33.22;35.53;99833.00;6272560;28;20047;-70
2022/07/29 13:11:31;;;;;;;5.57;3.22;;;;;;;33.15;35.01;99832.34;6254947;28;20060;-73
2022/07/29 13:14:37;;;;;;;8.13;3.08;;;;;;;32.44;38.15;99820.09;6285613;28;20049;-70
2022/07/29 13:17:43;;;;;;;7.22;3.67;;;;;;;32.66;37.26;99817.53;6279164;28;20037;-69
2022/07/29 13:20:44;;;;;;;5.60;3.08;;;;;;;32.79;37.56;99818.28;6297451;28;20482;-70
2022/07/29 13:23:44;;;;;;;10.60;2.97;;;;;;;32.70;35.82;99813.28;6262427;28;20071;-70
2022/07/29 13:26:45;;;;;;;5.50;3.05;;;;;;;32.62;37.88;99811.00;6279319;28;20036;-70
2022/07/29 13:29:47;;;;;;;6.15;3.00;;;;;;;32.65;35.72;99809.69;6296353;28;20113;-70
2022/07/29 13:32:50;;;;;;;5.80;3.00;;;;;;;32.61;34.79;99803.94;6262465;28;20045;-70
2022/07/29 13:35:51;;;;;;;6.60;3.00;;;;;;;32.28;36.41;99800.09;6278913;28;20547;-74
2022/07/29 13:38:52;;;;;;;5.47;2.80;;;;;;;32.48;36.67;99801.53;6262232;28;20037;-70
2022/07/29 13:41:53;;;;;;;5.70;3.00;;;;;;;32.62;37.38;99794.78;6260478;28;20052;-71
2022/07/29 13:44:54;;;;;;;5.25;2.88;;;;;;;32.67;36.97;99791.34;6278474;28;20442;-70
2022/07/29 13:47:55;;;;;;;4.80;3.08;;;;;;;32.44;36.42;99786.88;6245510;28;20061;-70
2022/07/29 13:50:56;;;;;;;5.38;3.10;;;;;;;32.61;33.76;99790.44;6245609;28;20071;-71
2022/07/29 13:53:57;;;;;;;7.32;3.03;;;;;;;32.57;34.64;99781.19;6278422;28;20402;-74
2022/07/29 13:56:58;;;;;;;3.13;2.85;;;;;;;32.63;37.31;99776.69;6261764;28;20037;-71
2022/07/29 13:59:59;;;;;;;;;;;;;;;32.68;35.88;99777.59;6278806;28;20041;-75
2022/07/29 14:02:59;;;;;;;5.78;2.90;;;;;;;32.60;35.42;99779.91;6278041;28;19920;-75
2022/07/29 14:06:00;;;;;;;;;;;;;;;32.58;34.21;99769.34;6261900;28;20045;-75
2022/07/29 14:09:02;;;;;;;4.30;3.08;;;;;;;32.56;35.97;99776.06;6261072;28;19962;-75
2022/07/29 14:12:03;;;;;;;6.22;2.70;;;;;;;32.48;34.81;99774.53;6278993;28;20143;-75
2022/07/29 14:15:04;;;;;;;;;;;;;;;32.45;34.15;99775.00;6268695;28;20051;-71
2022/07/29 14:18:05;;;;;;;4.97;2.97;;;;;;;32.58;34.88;99772.03;6279551;28;19942;-71
2022/07/29 14:21:06;;;;;;;;;;;;;;;32.60;35.53;99775.31;6272095;28;20479;-69
2022/07/29 14:24:07;;;;;;;2.97;2.67;;;;;;;32.40;33.93;99777.66;6295773;28;20057;-69
2022/07/29 14:27:08;;;;;;;;;;;;;;;32.36;35.56;99777.31;6296166;28;20378;-73
2022/07/29 14:30:10;;;;;;;6.05;2.83;;;;;;;32.45;36.31;99772.31;6295705;28;19920;-74
2022/07/29 14:33:13;;;;;;;5.68;3.35;;;;;;;32.32;36.54;99762.66;6272143;28;20041;-74
2022/07/29 14:36:14;;;;;;;4.65;3.25;;;;;;;32.30;36.61;99751.28;6295787;28;20048;-74
2022/07/29 14:39:17;;;;;;;6.70;3.58;;;;;;;32.39;36.71;99751.69;6267960;28;20618;-71
2022/07/29 14:42:19;;;;;;;7.55;3.50;;;;;;;32.31;36.45;99752.94;6283022;28;20047;-74